메인 페이지
METAR-TAF:

METAR-TAF

공항 :

콜초보 공항

예카테린부르크, 러시아

위도: 56-50N, 경도: 060-38E, 고도: 237m

현재 날씨관측

예보는 21분 전, 06:30시(UTC)에 발표되었습니다.
서북서10kt풍과 북북서풍을 오가는
온도 11°C
습도 47%
기압 1012 hPa
시정 10km 이상
1500m 미만 상공 구름 및 적란운 없음

METAR: USSS 250630Z 29005MPS 270V340 CAVOK 11/00 Q1012 R26R/010060 R26L/010060 NOSIG RMK QFE738/0984

시각: 11:51 (06:51 UTC)

예보

예보는 1 시간 52분 전, 04:59시(UTC)에 발표되었습니다.
예보 대상 시간: 25일 06시부터 26일 06시까지 (UTC)
12kt
시정 10km 이상
고도 1500ft 상공 구름 많음
고도 2000ft 상공 구름 보통, 적란운.
일시적
25일 09시부터 25일 18시까지 (UTC)
약한소나기

TAF: USSS 250459Z 2506/2606 35006MPS 9999 BKN015 SCT020CB TEMPO 2509/2518 -SHRA

4,000개 이상의 공항 관측 자료 및 예보 (METAR 및 TAF 보고).

지도상에서 검색 가능한 기상관측소가 노란 점과 빨간 점으로 표시되어 있습니다.

기상관측소 명을 보려면 표시 위로 마우스를 이동하세요.

날씨 관측과 예보를 보려면 클릭하세요.

지도 변경 : 확대하려면 엑스 표시가 있는 녹색 버튼, 축소하려면 빼기 표시가 있는 녹색 버튼, 다음 페이지의 지도를 보려면 녹색 화살표를 클릭하세요.


METAR-TAF: